Time;durP1;ratioP1;P1;durP2;ratioP2;P2;SDS_P1;SDS_P2;PMS_P1;PMS_P2;Temp;Humidity;BMP_temperature;BMP_pressure;BME280_temperature;BME280_humidity;BME280_pressure;Samples;Min_cycle;Max_cycle;Signal;HPM_P1;HPM_P2
2022/01/04 00:02:22;;;;;;;5.70;2.17;;;9.40;99.90;;;;;;5092011;28;20189;-63
2022/01/04 00:04:50;;;;;;;3.10;1.50;;;9.50;99.90;;;;;;5075160;28;20192;-62
2022/01/04 00:07:16;;;;;;;5.50;2.40;;;9.40;99.90;;;;;;5094691;28;20321;-62
2022/01/04 00:09:43;;;;;;;2.93;2.30;;;9.40;99.90;;;;;;5076885;28;20637;-63
2022/01/04 00:14:55;;;;;;;3.80;2.60;;;9.40;99.90;;;;;;5094775;28;20249;-61
2022/01/04 00:17:21;;;;;;;5.50;2.70;;;9.40;99.90;;;;;;5095012;28;20212;-61
2022/01/04 00:19:47;;;;;;;4.17;2.03;;;9.30;99.90;;;;;;5076899;28;20200;-63
2022/01/04 00:22:13;;;;;;;19.97;3.80;;;9.40;99.90;;;;;;5094295;28;20231;-62
2022/01/04 00:24:39;;;;;;;5.47;3.70;;;9.40;99.90;;;;;;5077168;28;20249;-66
2022/01/04 00:27:05;;;;;;;6.07;2.03;;;9.50;99.90;;;;;;5094823;28;20529;-61
2022/01/04 00:29:31;;;;;;;3.50;1.93;;;9.50;99.90;;;;;;5095441;28;20188;-62
2022/01/04 00:31:56;;;;;;;3.50;1.83;;;9.50;99.90;;;;;;5077329;28;20651;-61
2022/01/04 00:34:22;;;;;;;2.07;1.60;;;9.50;99.90;;;;;;5095608;28;20189;-61
2022/01/04 00:36:48;;;;;;;2.67;1.70;;;9.40;99.90;;;;;;5076895;28;20238;-62
2022/01/04 00:39:13;;;;;;;3.47;2.27;;;9.40;99.90;;;;;;5077211;28;20665;-61
2022/01/04 00:41:39;;;;;;;1.80;1.50;;;9.50;99.90;;;;;;5094877;28;20195;-61
2022/01/04 00:44:06;;;;;;;4.10;1.83;;;9.60;99.90;;;;;;5095275;28;20641;-61
2022/01/04 00:46:31;;;;;;;1.90;1.63;;;9.60;99.90;;;;;;5059355;28;20197;-61
2022/01/04 00:49:10;;;;;;;1.97;1.70;;;9.60;99.90;;;;;;5071346;28;20548;-61
2022/01/04 00:51:42;;;;;;;4.97;2.30;;;9.60;99.90;;;;;;5095077;28;20189;-61
2022/01/04 00:54:08;;;;;;;4.37;2.33;;;9.70;99.90;;;;;;5094627;28;20172;-61
2022/01/04 00:56:34;;;;;;;7.33;2.73;;;9.70;99.90;;;;;;5075860;28;20208;-61
2022/01/04 00:59:00;;;;;;;5.63;2.67;;;9.70;99.90;;;;;;5076953;28;20271;-61
2022/01/04 01:01:26;;;;;;;3.80;2.80;;;9.70;99.90;;;;;;5094471;28;20619;-61
2022/01/04 01:03:52;;;;;;;4.20;1.93;;;9.70;99.90;;;;;;5094630;28;20312;-61
2022/01/04 01:06:18;;;;;;;7.50;2.80;;;9.70;99.90;;;;;;5094704;28;20230;-61
2022/01/04 01:08:44;;;;;;;4.50;2.60;;;9.70;99.90;;;;;;5094916;28;20641;-61
2022/01/04 01:11:10;;;;;;;3.93;2.77;;;9.70;99.90;;;;;;5093838;28;20212;-61
2022/01/04 01:13:36;;;;;;;6.17;2.80;;;9.70;99.90;;;;;;5043147;28;20371;-62
2022/01/04 01:16:02;;;;;;;6.53;3.97;;;9.60;99.90;;;;;;5093896;28;20320;-60
2022/01/04 01:18:28;;;;;;;8.07;4.17;;;9.70;99.90;;;;;;5093666;28;20199;-61
2022/01/04 01:20:54;;;;;;;9.67;4.53;;;9.70;99.90;;;;;;5076241;28;20218;-61
2022/01/04 01:23:20;;;;;;;5.57;3.83;;;9.60;99.90;;;;;;5094613;28;20196;-62
2022/01/04 01:25:47;;;;;;;9.40;5.07;;;9.60;99.90;;;;;;5094408;28;20231;-61
2022/01/04 01:28:14;;;;;;;9.90;5.60;;;9.70;99.90;;;;;;5094256;28;20245;-60
2022/01/04 01:30:41;;;;;;;12.37;5.90;;;9.60;99.90;;;;;;5076378;28;20188;-61
2022/01/04 01:33:08;;;;;;;12.00;7.23;;;9.50;99.90;;;;;;5059917;28;20184;-61
2022/01/04 01:35:34;;;;;;;11.47;6.00;;;9.50;99.90;;;;;;5093857;28;20247;-61
2022/01/04 01:38:02;;;;;;;14.13;6.00;;;9.60;99.90;;;;;;5093446;28;20690;-61
2022/01/04 01:40:28;;;;;;;11.87;4.53;;;9.50;99.90;;;;;;5075510;28;20188;-65
2022/01/04 01:42:54;;;;;;;9.27;4.87;;;9.60;99.90;;;;;;5076759;28;20176;-62
2022/01/04 01:45:21;;;;;;;17.27;6.97;;;9.50;99.90;;;;;;5075665;28;20203;-61
2022/01/04 01:47:48;;;;;;;10.57;4.73;;;9.50;99.90;;;;;;5093186;28;20189;-62
2022/01/04 01:50:14;;;;;;;15.17;5.30;;;9.60;99.90;;;;;;5075753;28;20188;-61
2022/01/04 01:52:41;;;;;;;10.53;5.03;;;9.60;99.90;;;;;;5061464;28;20185;-62
2022/01/04 01:55:09;;;;;;;11.97;5.20;;;9.80;99.90;;;;;;5093062;28;20545;-61
2022/01/04 01:57:34;;;;;;;8.43;5.60;;;9.90;99.90;;;;;;5075387;28;20296;-62
2022/01/04 02:00:01;;;;;;;9.53;5.50;;;9.90;99.90;;;;;;5093606;28;20267;-61
2022/01/04 02:02:26;;;;;;;5.80;4.20;;;9.70;99.90;;;;;;5075606;28;20195;-61
2022/01/04 02:04:52;;;;;;;8.23;3.90;;;9.80;99.90;;;;;;5093067;28;20193;-63
2022/01/04 02:07:20;;;;;;;6.97;4.00;;;9.90;99.90;;;;;;5093807;28;20207;-62
2022/01/04 02:09:56;;;;;;;8.70;4.33;;;9.90;99.90;;;;;;5093070;28;20637;-62
2022/01/04 02:12:22;;;;;;;7.00;4.07;;;9.80;99.90;;;;;;5092802;28;20184;-67
2022/01/04 02:14:51;;;;;;;5.57;4.20;;;9.80;99.90;;;;;;5075468;28;20185;-62
2022/01/04 02:17:17;;;;;;;7.60;4.37;;;9.80;99.90;;;;;;5077690;28;20307;-62
2022/01/04 02:19:43;;;;;;;5.77;4.20;;;9.80;99.90;;;;;;5087740;28;20268;-61
2022/01/04 02:22:08;;;;;;;7.50;4.43;;;9.70;99.90;;;;;;5093470;28;20185;-63
2022/01/04 02:24:34;;;;;;;8.17;4.73;;;9.90;99.90;;;;;;5074351;28;20184;-61
2022/01/04 02:27:00;;;;;;;14.80;6.47;;;9.80;99.90;;;;;;5092525;28;20192;-63
2022/01/04 02:29:27;;;;;;;5.90;4.37;;;9.80;99.90;;;;;;5092961;28;20282;-61
2022/01/04 02:31:53;;;;;;;8.57;4.63;;;9.70;99.90;;;;;;5074997;28;20180;-61
2022/01/04 02:34:19;;;;;;;6.50;4.97;;;9.60;99.90;;;;;;5074864;28;20630;-61
2022/01/04 02:36:45;;;;;;;10.27;4.93;;;9.60;99.90;;;;;;5092625;28;20801;-61
2022/01/04 02:39:10;;;;;;;10.67;5.70;;;9.70;99.90;;;;;;5093111;28;20287;-61
2022/01/04 02:41:36;;;;;;;9.37;5.77;;;9.70;99.90;;;;;;5093087;28;20191;-61
2022/01/04 02:44:03;;;;;;;10.30;5.03;;;9.70;99.90;;;;;;5056501;28;20246;-61
2022/01/04 02:46:29;;;;;;;8.63;5.17;;;9.70;99.90;;;;;;5092308;28;20245;-63
2022/01/04 02:48:55;;;;;;;9.13;5.53;;;9.70;99.90;;;;;;5074152;28;20188;-61
2022/01/04 02:51:23;;;;;;;13.97;5.30;;;9.70;99.90;;;;;;5092948;28;20196;-61
2022/01/04 02:53:49;;;;;;;8.83;6.17;;;9.80;99.90;;;;;;5092763;28;20559;-61
2022/01/04 02:56:15;;;;;;;9.00;5.37;;;9.60;99.90;;;;;;5092587;28;20204;-61
2022/01/04 02:58:41;;;;;;;7.77;5.90;;;9.60;99.90;;;;;;5092869;28;20200;-61
2022/01/04 03:01:07;;;;;;;9.77;4.13;;;9.50;99.90;;;;;;5092072;28;20189;-61
2022/01/04 03:03:33;;;;;;;11.97;5.47;;;9.50;99.90;;;;;;5074608;28;20240;-60
2022/01/04 03:05:59;;;;;;;10.57;5.77;;;9.60;99.90;;;;;;5091755;28;20612;-62
2022/01/04 03:08:25;;;;;;;10.27;5.47;;;9.50;99.90;;;;;;5092459;28;20212;-61
2022/01/04 03:10:51;;;;;;;7.07;4.67;;;9.40;99.90;;;;;;5092005;28;20272;-61
2022/01/04 03:13:17;;;;;;;10.93;6.33;;;9.50;99.90;;;;;;5092609;28;20263;-61
2022/01/04 03:15:46;;;;;;;12.57;5.57;;;9.60;99.90;;;;;;5091537;28;20236;-61
2022/01/04 03:18:13;;;;;;;12.03;6.17;;;9.70;99.90;;;;;;5092492;28;20605;-61
2022/01/04 03:20:38;;;;;;;13.13;5.80;;;9.70;99.90;;;;;;5092709;28;20181;-62
2022/01/04 03:23:08;;;;;;;11.20;6.00;;;9.70;99.90;;;;;;5092928;28;20185;-61
2022/01/04 03:25:35;;;;;;;12.10;5.57;;;9.70;99.90;;;;;;5091752;28;20185;-61
2022/01/04 03:28:03;;;;;;;11.30;5.50;;;9.70;99.90;;;;;;5091518;28;20192;-62
2022/01/04 03:30:28;;;;;;;9.93;6.30;;;9.70;99.90;;;;;;5084352;28;20184;-60
2022/01/04 03:32:54;;;;;;;8.80;5.13;;;9.60;99.90;;;;;;5092491;28;20775;-61
2022/01/04 03:35:21;;;;;;;7.60;5.53;;;9.70;99.90;;;;;;5074287;28;20676;-61
2022/01/04 03:37:47;;;;;;;8.10;5.03;;;9.80;99.90;;;;;;5092266;28;20189;-61
2022/01/04 03:40:13;;;;;;;7.43;5.07;;;9.70;99.90;;;;;;5095188;28;20191;-60
2022/01/04 03:42:39;;;;;;;7.80;5.73;;;9.60;99.90;;;;;;5095808;28;20188;-61
2022/01/04 03:45:07;;;;;;;14.70;5.97;;;9.60;99.90;;;;;;5096476;28;20191;-60
2022/01/04 03:47:33;;;;;;;8.03;5.63;;;9.60;99.90;;;;;;5095333;28;20193;-60
2022/01/04 03:49:58;;;;;;;10.33;5.00;;;9.60;99.90;;;;;;5078950;28;20259;-60
2022/01/04 03:52:25;;;;;;;8.40;4.43;;;9.50;99.90;;;;;;5096096;28;20276;-61
2022/01/04 03:54:50;;;;;;;5.80;3.97;;;9.40;99.90;;;;;;5095375;28;20540;-61
2022/01/04 03:57:16;;;;;;;11.23;5.37;;;9.50;99.90;;;;;;5077778;28;20295;-61
2022/01/04 03:59:42;;;;;;;7.57;5.40;;;9.70;99.90;;;;;;5095955;28;20227;-61
2022/01/04 04:02:07;;;;;;;7.00;4.90;;;9.60;99.90;;;;;;5096229;28;20185;-62
2022/01/04 04:04:33;;;;;;;6.40;5.10;;;9.70;99.90;;;;;;5060808;28;20204;-60
2022/01/04 04:06:59;;;;;;;7.63;5.10;;;9.70;99.90;;;;;;5077217;28;20196;-60
2022/01/04 04:09:25;;;;;;;8.80;5.10;;;9.50;99.90;;;;;;5095620;28;20238;-61
2022/01/04 04:11:50;;;;;;;11.67;6.60;;;9.50;99.90;;;;;;5077212;28;20200;-60
2022/01/04 04:14:16;;;;;;;7.23;4.60;;;9.60;99.90;;;;;;5095702;28;20187;-61
2022/01/04 04:16:42;;;;;;;10.97;5.10;;;9.50;99.90;;;;;;5095576;28;20244;-61
2022/01/04 04:19:07;;;;;;;7.83;4.73;;;9.40;99.90;;;;;;5077744;28;20546;-62
2022/01/04 04:21:33;;;;;;;9.50;4.10;;;9.30;99.90;;;;;;5059767;28;20264;-61
2022/01/04 04:23:59;;;;;;;6.30;4.50;;;9.30;99.90;;;;;;5091632;28;20271;-64
2022/01/04 04:26:25;;;;;;;7.40;4.63;;;9.40;99.90;;;;;;5094714;28;20193;-61
2022/01/04 04:28:50;;;;;;;7.50;5.33;;;9.50;99.90;;;;;;5094626;28;20263;-61
2022/01/04 04:31:16;;;;;;;7.30;4.47;;;9.60;99.90;;;;;;5077159;28;20518;-61
2022/01/04 04:33:42;;;;;;;7.73;4.77;;;9.70;99.90;;;;;;5094930;28;20197;-61
2022/01/04 04:36:10;;;;;;;9.73;5.07;;;9.60;99.90;;;;;;5077131;28;20213;-61
2022/01/04 04:38:36;;;;;;;8.40;3.97;;;9.70;99.90;;;;;;5095448;28;20203;-61
2022/01/04 04:41:02;;;;;;;6.17;4.20;;;9.70;99.90;;;;;;5094927;28;20188;-61
2022/01/04 04:43:28;;;;;;;6.07;3.87;;;9.70;99.90;;;;;;5094941;28;20192;-61
2022/01/04 04:45:54;;;;;;;7.03;4.40;;;9.70;99.90;;;;;;5076326;28;20192;-61
2022/01/04 04:48:20;;;;;;;5.77;3.97;;;9.60;99.90;;;;;;5095038;28;20172;-61
2022/01/04 04:50:46;;;;;;;8.80;4.87;;;9.60;99.90;;;;;;5095334;28;20181;-61
2022/01/04 04:53:11;;;;;;;11.33;4.97;;;9.60;99.90;;;;;;5094128;28;20652;-61
2022/01/04 04:55:37;;;;;;;11.80;5.73;;;9.60;99.90;;;;;;5094801;28;20233;-61
2022/01/04 04:58:03;;;;;;;7.87;5.27;;;9.70;99.90;;;;;;5076968;28;20549;-61
2022/01/04 05:00:28;;;;;;;11.50;5.10;;;9.80;99.90;;;;;;5076989;28;20207;-61
2022/01/04 05:02:54;;;;;;;10.63;5.33;;;9.80;99.90;;;;;;5094529;28;20189;-61
2022/01/04 05:05:19;;;;;;;14.10;5.80;;;9.80;99.90;;;;;;5076770;28;20654;-62
2022/01/04 05:07:45;;;;;;;14.60;6.03;;;9.70;99.90;;;;;;5094765;28;20199;-60
2022/01/04 05:10:11;;;;;;;12.53;5.70;;;9.60;99.90;;;;;;5094485;28;20200;-61
2022/01/04 05:12:37;;;;;;;11.70;5.40;;;9.60;99.90;;;;;;5094621;28;20563;-61
2022/01/04 05:15:04;;;;;;;10.77;5.20;;;9.40;99.90;;;;;;5094532;28;20184;-60
2022/01/04 05:17:31;;;;;;;16.43;6.23;;;9.30;99.90;;;;;;5076252;28;20216;-67
2022/01/04 05:19:56;;;;;;;9.57;5.60;;;9.40;99.90;;;;;;5094285;28;20673;-61
2022/01/04 05:22:22;;;;;;;12.03;5.80;;;9.40;99.90;;;;;;5076110;28;20193;-61
2022/01/04 05:24:48;;;;;;;13.40;5.97;;;9.30;99.90;;;;;;5059420;28;20192;-60
2022/01/04 05:27:14;;;;;;;15.03;5.47;;;9.40;99.90;;;;;;5093978;28;20181;-61
2022/01/04 05:29:40;;;;;;;8.60;6.13;;;9.50;99.90;;;;;;5076461;28;20598;-61
2022/01/04 05:32:06;;;;;;;14.30;6.43;;;9.50;99.90;;;;;;5075337;28;20225;-61
2022/01/04 05:34:32;;;;;;;13.70;6.90;;;9.40;99.90;;;;;;5076112;28;20216;-61
2022/01/04 05:36:58;;;;;;;16.20;7.30;;;9.40;99.90;;;;;;5075333;28;20312;-62
2022/01/04 05:39:23;;;;;;;14.03;7.90;;;9.50;99.90;;;;;;5094347;28;20653;-62
2022/01/04 05:41:49;;;;;;;12.13;6.30;;;9.70;99.90;;;;;;5093950;28;20176;-60
2022/01/04 05:44:15;;;;;;;13.00;7.27;;;9.70;99.90;;;;;;5094118;28;20180;-60
2022/01/04 05:46:41;;;;;;;12.13;6.10;;;9.70;99.90;;;;;;5093919;28;20192;-61
2022/01/04 05:49:07;;;;;;;17.27;6.63;;;9.70;99.90;;;;;;5093895;28;20197;-61
2022/01/04 05:51:32;;;;;;;12.77;5.93;;;9.80;99.90;;;;;;5075387;28;20192;-61
2022/01/04 05:53:58;;;;;;;11.43;6.63;;;9.70;99.90;;;;;;5093559;28;20188;-61
2022/01/04 05:56:24;;;;;;;10.60;6.17;;;9.70;99.90;;;;;;5075669;28;20566;-61
2022/01/04 05:58:49;;;;;;;15.57;7.73;;;9.60;99.90;;;;;;5093525;28;20201;-65
2022/01/04 06:01:15;;;;;;;11.07;6.10;;;9.70;99.90;;;;;;5092732;28;20184;-61
2022/01/04 06:03:41;;;;;;;9.37;6.17;;;9.70;99.90;;;;;;5092463;28;20216;-61
2022/01/04 06:06:06;;;;;;;13.23;6.67;;;9.80;99.90;;;;;;5093470;28;20203;-61
2022/01/04 06:08:36;;;;;;;11.63;6.43;;;9.70;99.90;;;;;;5093751;28;20189;-60
2022/01/04 06:11:02;;;;;;;17.37;6.20;;;9.80;99.90;;;;;;5075088;28;20665;-61
2022/01/04 06:16:13;;;;;;;11.13;4.63;;;9.90;99.90;;;;;;5078378;28;20223;-61
2022/01/04 06:18:41;;;;;;;15.17;6.37;;;9.80;99.90;;;;;;5093313;28;20197;-61
2022/01/04 06:21:07;;;;;;;8.47;4.37;;;9.70;99.90;;;;;;5093401;28;20208;-62
2022/01/04 06:23:33;;;;;;;9.57;6.33;;;9.60;99.90;;;;;;5062519;28;20634;-61
2022/01/04 06:25:59;;;;;;;9.03;5.00;;;9.50;99.90;;;;;;5091546;28;20237;-64
2022/01/04 06:28:25;;;;;;;9.40;5.30;;;9.60;99.90;;;;;;5075793;28;20191;-63
2022/01/04 06:30:51;;;;;;;8.80;4.23;;;9.70;99.90;;;;;;5074388;28;20288;-63
2022/01/04 06:33:21;;;;;;;10.00;5.13;;;9.70;99.90;;;;;;5093090;28;20220;-63
2022/01/04 06:35:48;;;;;;;8.87;5.13;;;9.70;99.90;;;;;;5065443;28;20216;-64
2022/01/04 06:38:14;;;;;;;12.87;4.90;;;9.70;99.90;;;;;;5081174;28;20192;-65
2022/01/04 06:40:40;;;;;;;10.90;5.63;;;9.70;99.90;;;;;;5091518;28;20548;-65
2022/01/04 06:43:06;;;;;;;11.33;5.17;;;9.70;99.90;;;;;;5071754;28;20189;-63
2022/01/04 06:45:32;;;;;;;10.57;5.00;;;9.60;99.90;;;;;;5092906;28;20285;-64
2022/01/04 06:47:57;;;;;;;7.93;4.87;;;9.70;99.90;;;;;;5092837;28;20567;-68
2022/01/04 06:50:23;;;;;;;11.53;5.60;;;9.80;99.90;;;;;;5075061;28;20275;-63
2022/01/04 06:52:49;;;;;;;14.03;5.37;;;9.90;99.90;;;;;;5085452;28;20189;-65
2022/01/04 06:55:16;;;;;;;6.03;4.67;;;9.90;99.90;;;;;;5091576;28;20181;-63
2022/01/04 06:57:42;;;;;;;7.43;5.03;;;9.70;99.90;;;;;;5074600;28;20676;-63
2022/01/04 07:00:09;;;;;;;8.77;5.33;;;9.70;99.90;;;;;;5091752;28;20559;-65
2022/01/04 07:02:35;;;;;;;9.07;4.93;;;9.70;99.90;;;;;;5092662;28;20192;-63
2022/01/04 07:05:00;;;;;;;9.83;5.90;;;9.70;99.90;;;;;;5091727;28;20698;-65
2022/01/04 07:07:26;;;;;;;10.03;5.20;;;9.60;99.90;;;;;;5072747;28;20192;-65
2022/01/04 07:09:52;;;;;;;8.77;5.00;;;9.50;99.90;;;;;;5057223;28;20194;-65
2022/01/04 07:12:17;;;;;;;10.40;5.33;;;9.50;99.90;;;;;;5075043;28;20188;-64
2022/01/04 07:14:43;;;;;;;8.17;5.60;;;9.50;99.90;;;;;;5070671;28;20652;-64
2022/01/04 07:17:09;;;;;;;7.63;4.70;;;9.50;99.90;;;;;;5077800;28;20216;-64
2022/01/04 07:19:35;;;;;;;7.93;5.33;;;9.50;99.90;;;;;;5074559;28;20192;-63
2022/01/04 07:22:00;;;;;;;9.63;5.00;;;9.50;99.90;;;;;;5050400;28;20186;-63
2022/01/04 07:24:26;;;;;;;9.40;5.30;;;9.60;99.90;;;;;;5077395;28;20237;-64
2022/01/04 07:26:52;;;;;;;8.10;5.47;;;9.70;99.90;;;;;;5092502;28;20199;-64
2022/01/04 07:29:18;;;;;;;8.93;5.83;;;9.70;99.90;;;;;;5091608;28;20272;-64
2022/01/04 07:31:43;;;;;;;10.40;5.60;;;9.50;99.90;;;;;;5073659;28;20188;-63
2022/01/04 07:34:09;;;;;;;11.50;6.13;;;9.60;99.90;;;;;;5092315;28;20192;-64
2022/01/04 07:36:35;;;;;;;12.80;6.70;;;9.50;99.90;;;;;;5091393;28;20240;-62
2022/01/04 07:39:03;;;;;;;14.60;6.37;;;9.40;99.90;;;;;;5074039;28;20579;-64
2022/01/04 07:41:29;;;;;;;12.13;6.87;;;9.30;99.90;;;;;;5092438;28;20617;-63
2022/01/04 07:43:55;;;;;;;12.17;6.80;;;9.30;99.90;;;;;;5092306;28;20246;-65
2022/01/04 07:46:21;;;;;;;14.60;7.60;;;9.30;99.90;;;;;;5092347;28;20558;-65
2022/01/04 07:48:49;;;;;;;14.00;7.07;;;9.50;99.90;;;;;;5066032;28;20188;-62
2022/01/04 07:51:14;;;;;;;9.47;6.77;;;9.60;99.90;;;;;;5092483;28;20276;-62
2022/01/04 07:53:40;;;;;;;16.87;8.20;;;9.40;99.90;;;;;;5091796;28;20620;-66
2022/01/04 07:56:06;;;;;;;14.07;6.93;;;9.50;99.90;;;;;;5073134;28;20217;-64
2022/01/04 07:58:32;;;;;;;11.00;6.53;;;9.50;99.90;;;;;;5073945;28;20197;-62
2022/01/04 08:00:58;;;;;;;13.07;8.00;;;9.40;99.90;;;;;;5073407;28;20586;-68
2022/01/04 08:03:23;;;;;;;14.27;8.37;;;9.40;99.90;;;;;;5072637;28;20242;-63
2022/01/04 08:05:49;;;;;;;15.43;7.60;;;9.50;99.90;;;;;;5056162;28;20193;-66
2022/01/04 08:08:15;;;;;;;13.93;8.63;;;9.60;99.90;;;;;;5073195;28;20709;-64
2022/01/04 08:10:41;;;;;;;13.77;8.13;;;9.60;99.90;;;;;;5073536;28;20254;-63
2022/01/04 08:13:06;;;;;;;13.23;7.07;;;9.60;99.90;;;;;;5091986;28;20193;-63
2022/01/04 08:15:32;;;;;;;18.83;7.87;;;9.50;99.90;;;;;;5091031;28;20272;-63
2022/01/04 08:17:58;;;;;;;9.23;6.07;;;9.40;99.90;;;;;;5091662;28;20615;-63
2022/01/04 08:20:24;;;;;;;13.17;7.43;;;9.50;99.90;;;;;;5091007;28;20668;-63
2022/01/04 08:22:50;;;;;;;16.30;7.23;;;9.40;99.90;;;;;;5091827;28;20185;-63
2022/01/04 08:25:16;;;;;;;12.20;6.13;;;9.50;99.90;;;;;;5073974;28;20638;-65
2022/01/04 08:27:42;;;;;;;14.47;8.17;;;9.40;99.90;;;;;;5095686;28;20649;-63
2022/01/04 08:30:10;;;;;;;15.40;7.77;;;9.30;99.90;;;;;;5077496;28;20189;-63
2022/01/04 08:32:37;;;;;;;17.47;7.77;;;9.30;99.90;;;;;;5077410;28;20196;-63
2022/01/04 08:35:04;;;;;;;17.40;8.57;;;9.10;99.90;;;;;;5095338;28;20185;-63
2022/01/04 08:37:30;;;;;;;15.50;8.30;;;9.10;99.90;;;;;;5060196;28;20211;-63
2022/01/04 08:39:55;;;;;;;15.33;7.23;;;9.10;99.90;;;;;;5077317;28;20189;-63
2022/01/04 08:42:22;;;;;;;19.63;8.73;;;9.20;99.90;;;;;;5095471;28;20234;-63
2022/01/04 08:44:51;;;;;;;15.33;8.50;;;9.30;99.90;;;;;;5095202;28;20209;-63
2022/01/04 08:47:17;;;;;;;17.77;8.40;;;9.40;99.90;;;;;;5094462;28;20194;-63
2022/01/04 08:49:43;;;;;;;20.07;8.90;;;9.30;99.90;;;;;;5057974;28;20189;-63
2022/01/04 08:52:09;;;;;;;15.40;7.90;;;9.40;99.90;;;;;;5074949;28;20199;-63
2022/01/04 08:54:35;;;;;;;14.53;8.00;;;9.50;99.90;;;;;;5059255;28;20191;-63
2022/01/04 08:57:01;;;;;;;16.97;8.83;;;9.60;99.90;;;;;;5095002;28;20209;-64
2022/01/04 08:59:28;;;;;;;14.03;7.40;;;9.60;99.90;;;;;;5094678;28;20237;-64
2022/01/04 09:01:56;;;;;;;14.17;8.60;;;9.70;99.90;;;;;;5095061;28;20181;-63
2022/01/04 09:04:21;;;;;;;15.03;7.83;;;9.90;99.90;;;;;;5094878;28;20245;-64
2022/01/04 09:06:48;;;;;;;17.03;7.73;;;9.80;99.90;;;;;;5076728;28;20591;-64
2022/01/04 09:09:14;;;;;;;18.30;9.20;;;9.80;99.90;;;;;;5060054;28;20207;-65
2022/01/04 09:11:40;;;;;;;19.00;10.90;;;9.80;99.90;;;;;;5095204;28;20200;-64
2022/01/04 09:14:21;;;;;;;20.30;9.37;;;9.60;99.90;;;;;;5085748;28;20199;-63
2022/01/04 09:19:31;;;;;;;16.40;9.00;;;9.50;99.90;;;;;;5093971;28;20276;-64
2022/01/04 09:21:57;;;;;;;16.17;8.87;;;9.70;99.90;;;;;;5065102;28;20268;-65
2022/01/04 09:24:22;;;;;;;16.90;10.23;;;9.70;99.90;;;;;;5066556;28;20185;-64
2022/01/04 09:26:48;;;;;;;15.90;8.73;;;9.70;99.90;;;;;;5076276;28;20335;-63
2022/01/04 09:29:23;;;;;;;18.90;9.20;;;9.70;99.90;;;;;;5076614;28;20660;-64
2022/01/04 09:31:50;;;;;;;19.63;10.63;;;9.70;99.90;;;;;;5076495;28;20203;-64
2022/01/04 09:34:17;;;;;;;14.93;9.50;;;9.80;99.90;;;;;;5094251;28;20188;-64
2022/01/04 09:36:43;;;;;;;17.10;9.67;;;9.80;99.90;;;;;;5093244;28;20212;-63
2022/01/04 09:39:18;;;;;;;15.60;8.40;;;9.90;99.90;;;;;;5094367;28;20203;-64
2022/01/04 09:41:44;;;;;;;17.23;10.10;;;10.00;99.90;;;;;;5094110;28;20223;-64
2022/01/04 09:44:12;;;;;;;19.20;8.87;;;10.20;99.90;;;;;;5093699;28;20220;-64
2022/01/04 09:46:38;;;;;;;16.37;9.93;;;10.20;99.90;;;;;;5076013;28;20542;-64
2022/01/04 09:49:04;;;;;;;15.90;7.80;;;10.20;99.90;;;;;;5093720;28;20191;-64
2022/01/04 09:51:31;;;;;;;17.23;8.50;;;10.30;99.90;;;;;;5075059;28;20185;-64
2022/01/04 09:53:56;;;;;;;16.97;8.77;;;10.30;99.90;;;;;;5058854;28;20630;-64
2022/01/04 09:56:22;;;;;;;16.40;9.20;;;10.20;99.90;;;;;;5074646;28;20265;-64
2022/01/04 09:58:48;;;;;;;14.97;9.47;;;10.10;99.90;;;;;;5093743;28;20180;-64
2022/01/04 10:01:22;;;;;;;17.00;8.37;;;10.20;99.90;;;;;;5076638;28;20539;-65
2022/01/04 10:03:48;;;;;;;15.37;9.23;;;10.10;99.90;;;;;;5094037;28;20184;-65
2022/01/04 10:06:16;;;;;;;15.90;8.40;;;10.00;99.90;;;;;;5076052;28;20227;-65
2022/01/04 10:08:57;;;;;;;17.17;8.70;;;10.00;99.90;;;;;;5092955;28;20184;-64
2022/01/04 10:11:39;;;;;;;15.00;8.97;;;10.10;99.90;;;;;;5093751;28;20598;-64
2022/01/04 10:14:47;;;;;;;12.67;8.53;;;10.30;99.90;;;;;;5093559;28;20184;-64
2022/01/04 10:17:14;;;;;;;13.07;8.07;;;10.40;99.90;;;;;;5011099;28;20250;-64
2022/01/04 10:19:41;;;;;;;16.07;8.83;;;10.40;99.90;;;;;;5010675;28;20257;-64
2022/01/04 10:22:27;;;;;;;14.57;7.97;;;10.40;99.90;;;;;;5053131;28;20288;-64
2022/01/04 10:25:02;;;;;;;12.03;8.47;;;10.30;99.90;;;;;;5093365;28;20667;-64
2022/01/04 10:27:32;;;;;;;17.97;9.07;;;10.30;99.90;;;;;;5092122;28;20557;-65
2022/01/04 10:30:22;;;;;;;17.70;10.03;;;10.20;99.90;;;;;;5092775;28;20176;-64
2022/01/04 10:32:58;;;;;;;18.73;9.23;;;10.10;99.90;;;;;;5086877;28;20185;-64
2022/01/04 10:35:41;;;;;;;13.90;8.17;;;10.10;99.90;;;;;;5093250;28;20659;-64
2022/01/04 10:38:21;;;;;;;14.20;8.47;;;10.10;99.90;;;;;;5093079;28;20620;-65
2022/01/04 10:40:50;;;;;;;12.67;7.70;;;10.30;99.90;;;;;;5075115;28;20216;-64
2022/01/04 10:43:21;;;;;;;15.70;8.07;;;10.40;99.90;;;;;;5092966;28;20629;-64
2022/01/04 10:45:48;;;;;;;15.23;8.30;;;10.40;99.90;;;;;;5092900;28;20192;-65
2022/01/04 10:48:26;;;;;;;12.07;7.87;;;10.50;99.90;;;;;;5092346;28;20188;-65
2022/01/04 10:51:06;;;;;;;12.80;7.37;;;10.50;99.90;;;;;;5092777;28;20220;-65
2022/01/04 10:53:38;;;;;;;13.27;7.40;;;10.50;99.90;;;;;;5055624;28;20578;-65
2022/01/04 10:56:07;;;;;;;13.77;8.60;;;10.60;99.90;;;;;;5093501;28;20209;-65
2022/01/04 10:58:47;;;;;;;17.03;8.07;;;10.50;99.90;;;;;;5091904;28;20657;-64
2022/01/04 11:01:18;;;;;;;10.93;7.67;;;10.50;99.90;;;;;;5092354;28;20255;-65
2022/01/04 11:03:55;;;;;;;16.10;8.17;;;10.40;99.90;;;;;;5092977;28;20215;-64
2022/01/04 11:06:30;;;;;;;18.27;8.07;;;10.70;99.90;;;;;;5093496;28;20192;-65
2022/01/04 11:08:57;;;;;;;13.13;7.20;;;10.80;99.90;;;;;;5073594;28;20653;-65
2022/01/04 11:11:23;;;;;;;13.23;7.57;;;10.80;99.90;;;;;;5089001;28;20638;-65
2022/01/04 11:13:51;;;;;;;11.25;7.43;;;10.70;99.90;;;;;;5074312;28;21040;-65
2022/01/04 11:16:28;;;;;;;11.52;7.10;;;10.50;99.90;;;;;;5058252;28;20204;-65
2022/01/04 11:18:57;;;;;;;11.57;7.00;;;10.70;99.90;;;;;;5073490;28;20614;-65
2022/01/04 11:21:41;;;;;;;8.82;6.38;;;10.90;99.90;;;;;;5089426;28;20192;-65
2022/01/04 11:24:12;;;;;;;10.10;6.50;;;10.90;99.90;;;;;;5092722;28;20179;-65
2022/01/04 11:26:43;;;;;;;10.97;6.73;;;10.90;99.90;;;;;;5092474;28;20189;-64
2022/01/04 11:29:09;;;;;;;11.40;6.65;;;10.90;99.90;;;;;;5092318;28;20200;-65
2022/01/04 11:31:58;;;;;;;10.98;6.85;;;10.80;99.90;;;;;;5073450;28;20184;-65
2022/01/04 11:34:36;;;;;;;10.30;6.47;;;10.80;99.90;;;;;;5092261;28;20388;-65
2022/01/04 11:37:02;;;;;;;8.55;7.47;;;10.60;99.90;;;;;;5092720;28;20250;-67
2022/01/04 11:39:39;;;;;;;11.47;7.37;;;10.80;99.90;;;;;;5091950;28;20192;-65
2022/01/04 11:42:06;;;;;;;12.68;8.55;;;10.70;99.90;;;;;;5091910;28;20195;-65
2022/01/04 11:44:34;;;;;;;16.52;8.02;;;10.80;99.90;;;;;;5074177;28;20215;-65
2022/01/04 11:46:59;;;;;;;13.15;7.35;;;10.80;99.90;;;;;;5074863;28;20216;-65
2022/01/04 11:49:25;;;;;;;10.50;6.75;;;10.90;99.90;;;;;;5092372;28;20619;-65
2022/01/04 11:51:51;;;;;;;10.75;7.65;;;10.90;99.90;;;;;;5092072;28;20184;-66
2022/01/04 11:54:27;;;;;;;8.73;7.53;;;10.90;99.90;;;;;;5091325;28;20263;-64
2022/01/04 11:57:14;;;;;;;11.50;7.57;;;10.80;99.90;;;;;;5092367;28;20211;-65
2022/01/04 11:59:47;;;;;;;10.85;7.50;;;10.80;99.90;;;;;;5074922;28;20180;-65
2022/01/04 12:02:27;;;;;;;9.35;7.05;;;10.70;99.90;;;;;;5077415;28;20180;-65
2022/01/04 12:04:56;;;;;;;11.35;7.15;;;10.90;99.90;;;;;;5077921;28;20233;-65
2022/01/04 12:07:48;;;;;;;11.38;6.45;;;11.00;99.90;;;;;;5094990;28;20188;-65
2022/01/04 12:10:20;;;;;;;10.82;6.60;;;11.00;99.90;;;;;;5094841;28;20196;-68
2022/01/04 12:13:16;;;;;;;10.60;8.07;;;11.00;99.90;;;;;;5084496;28;20184;-66
2022/01/04 12:15:57;;;;;;;12.20;6.78;;;10.90;99.90;;;;;;5077570;28;20185;-65
2022/01/04 12:18:23;;;;;;;8.15;6.35;;;10.90;99.90;;;;;;5094648;28;20547;-65
2022/01/04 12:20:52;;;;;;;13.80;7.63;;;10.90;99.90;;;;;;5077511;28;20189;-65
2022/01/04 12:23:26;;;;;;;10.18;7.55;;;10.80;99.90;;;;;;5078168;28;20212;-68
2022/01/04 12:26:04;;;;;;;12.48;7.20;;;10.70;99.90;;;;;;5076176;28;20177;-65
2022/01/04 12:28:34;;;;;;;9.70;7.20;;;10.60;99.90;;;;;;5095288;28;20187;-65
2022/01/04 12:31:16;;;;;;;8.02;6.63;;;10.70;99.90;;;;;;5094702;28;20172;-65
2022/01/04 12:33:59;;;;;;;16.77;7.22;;;10.90;99.90;;;;;;5095482;28;20614;-66
2022/01/04 12:36:34;;;;;;;7.82;6.82;;;11.00;99.90;;;;;;5094267;28;20287;-65
2022/01/04 12:39:09;;;;;;;10.73;7.95;;;11.00;99.90;;;;;;5095255;28;20541;-65
2022/01/04 12:41:36;;;;;;;12.80;7.60;;;10.90;99.90;;;;;;5095294;28;20189;-66
2022/01/04 12:44:04;;;;;;;8.23;7.05;;;11.00;99.90;;;;;;5060211;28;20192;-65
2022/01/04 12:46:35;;;;;;;9.57;7.15;;;11.10;99.90;;;;;;5076991;28;20195;-65
2022/01/04 12:49:15;;;;;;;9.38;7.60;;;11.20;99.90;;;;;;5076846;28;20188;-69
2022/01/04 12:51:47;;;;;;;9.15;6.18;;;11.20;99.90;;;;;;5067791;28;20283;-65
2022/01/04 12:54:18;;;;;;;7.72;6.93;;;11.20;99.90;;;;;;5095124;28;20180;-66
2022/01/04 12:56:47;;;;;;;7.47;6.70;;;11.10;99.90;;;;;;5094660;28;20677;-66
2022/01/04 12:59:25;;;;;;;8.63;7.53;;;11.10;99.90;;;;;;5094729;28;20554;-65
2022/01/04 13:01:56;;;;;;;10.60;7.00;;;10.80;99.90;;;;;;5075871;28;20616;-65